createdAt,value
2022-11-23T00:01:25.045Z,6.30
2022-11-23T00:03:53.261Z,6.30
2022-11-23T00:06:21.438Z,6.30
2022-11-23T00:08:48.559Z,6.30
2022-11-23T00:11:15.699Z,6.20
2022-11-23T00:13:42.747Z,6.20
2022-11-23T00:16:14.813Z,6.20
2022-11-23T00:18:42.007Z,6.20
2022-11-23T00:21:10.014Z,6.20
2022-11-23T00:23:37.317Z,6.10
2022-11-23T00:26:04.813Z,6.20
2022-11-23T00:28:31.741Z,6.10
2022-11-23T00:30:58.730Z,6.10
2022-11-23T00:33:25.596Z,6.10
2022-11-23T00:36:00.488Z,6.10
2022-11-23T00:38:27.671Z,6.10
2022-11-23T00:41:01.360Z,6.00
2022-11-23T00:43:29.371Z,6.00
2022-11-23T00:46:16.038Z,6.00
2022-11-23T00:48:44.025Z,6.00
2022-11-23T00:51:12.701Z,5.90
2022-11-23T00:53:40.629Z,5.90
2022-11-23T00:56:07.815Z,5.90
2022-11-23T00:58:35.018Z,5.90
2022-11-23T01:01:04.331Z,5.90
2022-11-23T01:03:34.224Z,5.90
2022-11-23T01:06:05.542Z,5.80
2022-11-23T01:08:32.382Z,5.80
2022-11-23T01:11:03.623Z,5.80
2022-11-23T01:13:30.670Z,5.70
2022-11-23T01:15:57.571Z,5.70
2022-11-23T01:18:24.583Z,5.70
2022-11-23T01:20:51.399Z,5.70
2022-11-23T01:23:18.272Z,5.70
2022-11-23T01:25:45.155Z,5.70
2022-11-23T01:28:11.991Z,5.70
2022-11-23T01:30:38.910Z,5.70
2022-11-23T01:33:05.771Z,5.70
2022-11-23T01:35:32.662Z,5.70
2022-11-23T01:37:59.551Z,5.70
2022-11-23T01:40:26.460Z,5.70
2022-11-23T01:42:53.746Z,5.70
2022-11-23T01:45:39.832Z,5.70
2022-11-23T01:48:09.965Z,5.70
2022-11-23T01:50:37.374Z,5.70
2022-11-23T01:53:04.587Z,5.70
2022-11-23T01:55:31.424Z,5.70
2022-11-23T01:57:58.273Z,5.70
2022-11-23T02:00:25.127Z,5.70
2022-11-23T02:02:55.824Z,5.70
2022-11-23T02:05:25.184Z,5.70
2022-11-23T02:07:52.178Z,5.70
2022-11-23T02:10:19.665Z,5.70
2022-11-23T02:12:46.604Z,5.70
2022-11-23T02:15:13.561Z,5.70
2022-11-23T02:17:41.962Z,5.70
2022-11-23T02:20:09.231Z,5.70
2022-11-23T02:22:36.214Z,5.70
2022-11-23T02:25:07.299Z,5.70
2022-11-23T02:27:34.473Z,5.70
2022-11-23T02:30:02.441Z,5.70
2022-11-23T02:32:29.861Z,5.70
2022-11-23T02:34:56.829Z,5.70
2022-11-23T02:37:23.903Z,5.70
2022-11-23T02:39:53.322Z,5.70
2022-11-23T02:42:20.722Z,5.70
2022-11-23T02:45:06.201Z,5.70
2022-11-23T02:47:32.971Z,5.70
2022-11-23T02:50:01.130Z,5.70
2022-11-23T02:52:28.041Z,5.70
2022-11-23T02:54:56.968Z,5.70
2022-11-23T02:57:23.801Z,5.70
2022-11-23T02:59:50.721Z,5.70
2022-11-23T03:02:17.621Z,5.70
2022-11-23T03:04:44.530Z,5.80
2022-11-23T03:07:11.476Z,5.80
2022-11-23T03:09:39.062Z,5.80
2022-11-23T03:12:06.356Z,5.80
2022-11-23T03:14:33.252Z,5.80
2022-11-23T03:17:00.688Z,5.80
2022-11-23T03:19:31.186Z,5.80
2022-11-23T03:21:58.343Z,5.80
2022-11-23T03:24:25.189Z,5.80
2022-11-23T03:26:53.767Z,5.80
2022-11-23T03:29:21.071Z,5.90
2022-11-23T03:31:47.951Z,5.90
2022-11-23T03:34:17.528Z,5.90
2022-11-23T03:36:45.088Z,5.90
2022-11-23T03:39:12.349Z,5.90
2022-11-23T03:42:03.374Z,6.00
2022-11-23T03:44:33.973Z,6.00
2022-11-23T03:47:00.813Z,6.00
2022-11-23T03:49:28.574Z,6.00
2022-11-23T03:51:55.433Z,6.00
2022-11-23T03:54:22.239Z,6.00
2022-11-23T03:56:49.077Z,6.00
2022-11-23T03:59:17.319Z,6.10
2022-11-23T04:01:44.205Z,6.10
2022-11-23T04:04:19.076Z,6.10
2022-11-23T04:07:01.214Z,6.10
2022-11-23T04:09:33.953Z,6.10
2022-11-23T04:12:04.241Z,6.10
2022-11-23T04:14:31.554Z,6.10
2022-11-23T04:16:59.860Z,6.20
2022-11-23T04:19:26.932Z,6.10
2022-11-23T04:21:54.262Z,6.20
2022-11-23T04:24:22.008Z,6.20
2022-11-23T04:26:50.050Z,6.20
2022-11-23T04:29:18.449Z,6.20
2022-11-23T04:31:51.419Z,6.20
2022-11-23T04:34:19.371Z,6.20
2022-11-23T04:36:48.015Z,6.20
2022-11-23T04:39:14.894Z,6.20
2022-11-23T04:41:55.312Z,6.20
2022-11-23T04:44:22.806Z,6.20
2022-11-23T04:46:55.902Z,6.20
2022-11-23T04:49:24.291Z,6.20
2022-11-23T04:51:51.524Z,6.30
2022-11-23T04:54:20.959Z,6.30
2022-11-23T04:56:54.350Z,6.30
2022-11-23T04:59:22.258Z,6.30
2022-11-23T05:01:49.741Z,6.30
2022-11-23T05:04:35.296Z,6.30
2022-11-23T05:07:03.930Z,6.30
2022-11-23T05:09:32.772Z,6.30
2022-11-23T05:12:04.296Z,6.30
2022-11-23T05:14:32.153Z,6.30
2022-11-23T05:16:59.069Z,6.30
2022-11-23T05:19:26.536Z,6.30
2022-11-23T05:21:53.702Z,6.20
2022-11-23T05:24:21.029Z,6.20
2022-11-23T05:27:00.336Z,6.20
2022-11-23T05:29:27.985Z,6.20
2022-11-23T05:31:54.876Z,6.20
2022-11-23T05:34:21.945Z,6.20
2022-11-23T05:36:49.394Z,6.20
2022-11-23T05:39:17.138Z,6.20
2022-11-23T05:41:44.663Z,6.20
2022-11-23T05:44:27.252Z,6.10
2022-11-23T05:46:54.112Z,6.10
2022-11-23T05:49:21.664Z,6.10
2022-11-23T05:51:48.546Z,6.10
2022-11-23T05:54:16.306Z,6.10
2022-11-23T05:56:54.562Z,6.10
2022-11-23T05:59:24.643Z,6.20
2022-11-23T06:01:58.142Z,6.10
2022-11-23T06:04:30.009Z,6.10
2022-11-23T06:07:01.140Z,6.10
2022-11-23T06:09:36.197Z,6.00
2022-11-23T06:12:07.462Z,6.00
2022-11-23T06:14:35.966Z,6.10
2022-11-23T06:17:03.030Z,6.00
2022-11-23T06:19:43.734Z,6.00
2022-11-23T06:22:12.072Z,6.00
2022-11-23T06:24:45.620Z,6.00
2022-11-23T06:27:31.775Z,6.00
2022-11-23T06:30:01.063Z,6.00
2022-11-23T06:32:29.760Z,6.00
2022-11-23T06:35:00.800Z,6.00
2022-11-23T06:37:30.661Z,6.00
2022-11-23T06:39:57.514Z,6.00
2022-11-23T06:42:41.099Z,6.00
2022-11-23T06:45:17.843Z,6.00
2022-11-23T06:47:45.874Z,6.00
2022-11-23T06:50:14.696Z,6.00
2022-11-23T06:52:43.837Z,6.00
2022-11-23T06:55:11.157Z,6.10
2022-11-23T06:57:37.998Z,6.10
2022-11-23T07:00:05.404Z,6.10
2022-11-23T07:02:36.611Z,6.10
2022-11-23T07:05:03.571Z,6.10
2022-11-23T07:07:31.987Z,6.10
2022-11-23T07:10:07.647Z,6.10
2022-11-23T07:12:50.834Z,6.10
2022-11-23T07:15:20.522Z,6.10
2022-11-23T07:17:47.918Z,6.10
2022-11-23T07:20:15.174Z,6.10
2022-11-23T07:22:42.093Z,6.10
2022-11-23T07:25:09.484Z,6.10
2022-11-23T07:27:37.071Z,6.10
2022-11-23T07:30:04.859Z,6.10
2022-11-23T07:32:31.811Z,6.20
2022-11-23T07:34:58.866Z,6.20
2022-11-23T07:37:27.765Z,6.20
2022-11-23T07:39:57.975Z,6.20
2022-11-23T07:42:34.557Z,6.20
2022-11-23T07:45:03.829Z,6.20
2022-11-23T07:47:31.037Z,6.20
2022-11-23T07:49:57.853Z,6.20
2022-11-23T07:52:24.823Z,6.30
2022-11-23T07:54:51.688Z,6.30
2022-11-23T07:57:18.534Z,6.30
2022-11-23T07:59:45.645Z,6.30
2022-11-23T08:02:15.596Z,6.30
2022-11-23T08:04:42.685Z,6.30
2022-11-23T08:07:09.598Z,6.30
2022-11-23T08:09:36.966Z,6.30
2022-11-23T08:12:03.893Z,6.30
2022-11-23T08:14:31.028Z,6.30
2022-11-23T08:16:58.118Z,6.40
2022-11-23T08:19:24.942Z,6.40
2022-11-23T08:21:51.763Z,6.40
2022-11-23T08:24:18.677Z,6.40
2022-11-23T08:26:46.092Z,6.50
2022-11-23T08:29:12.907Z,6.50
2022-11-23T08:31:39.863Z,6.50
2022-11-23T08:34:06.746Z,6.50
2022-11-23T08:36:33.567Z,6.50
2022-11-23T08:39:00.438Z,6.50
2022-11-23T08:41:27.413Z,6.40
2022-11-23T08:43:54.232Z,6.50
2022-11-23T08:46:21.137Z,6.50
2022-11-23T08:48:48.032Z,6.50
2022-11-23T08:51:14.966Z,6.50
2022-11-23T08:53:41.812Z,6.50
2022-11-23T08:56:08.771Z,6.50
2022-11-23T08:58:36.815Z,6.50
2022-11-23T09:01:07.578Z,6.50
2022-11-23T09:03:34.408Z,6.50
2022-11-23T09:06:01.448Z,6.50
2022-11-23T09:08:28.759Z,6.50
2022-11-23T09:10:59.309Z,6.60
2022-11-23T09:13:26.142Z,6.60
2022-11-23T09:15:56.678Z,6.60
2022-11-23T09:18:23.499Z,6.60
2022-11-23T09:20:50.311Z,6.60
2022-11-23T09:23:17.138Z,6.60
2022-11-23T09:25:47.792Z,6.60
2022-11-23T09:28:14.989Z,6.70
2022-11-23T09:30:42.298Z,6.70
2022-11-23T09:33:09.207Z,6.70
2022-11-23T09:35:40.702Z,6.70
2022-11-23T09:38:10.524Z,6.80
2022-11-23T09:40:38.419Z,6.80
2022-11-23T09:43:05.203Z,6.80
2022-11-23T09:45:51.964Z,6.80
2022-11-23T09:48:24.704Z,6.80
2022-11-23T09:51:10.420Z,6.90
2022-11-23T09:53:44.908Z,6.90
2022-11-23T09:56:22.925Z,6.90
2022-11-23T09:58:53.244Z,7.00
2022-11-23T10:01:20.291Z,7.00
2022-11-23T10:03:49.336Z,7.00
2022-11-23T10:06:22.785Z,7.00
2022-11-23T10:08:55.865Z,7.10
2022-11-23T10:11:41.298Z,7.10
2022-11-23T10:14:28.437Z,7.10
2022-11-23T10:16:58.359Z,7.10
2022-11-23T10:19:45.432Z,7.10
2022-11-23T10:22:38.671Z,7.20
2022-11-23T10:25:12.758Z,7.20
2022-11-23T10:27:39.638Z,7.20
2022-11-23T10:30:11.915Z,7.30
2022-11-23T10:32:41.911Z,7.30
2022-11-23T10:35:12.877Z,7.30
2022-11-23T10:37:40.602Z,7.40
2022-11-23T10:40:25.749Z,7.40
2022-11-23T10:43:01.260Z,7.40
2022-11-23T10:45:29.255Z,7.50
2022-11-23T10:47:59.364Z,7.50
2022-11-23T10:50:32.362Z,7.60
2022-11-23T10:53:18.758Z,7.70
2022-11-23T10:55:55.247Z,7.80
2022-11-23T10:58:25.184Z,7.90
2022-11-23T11:01:12.472Z,8.10
2022-11-23T11:03:39.478Z,8.10
2022-11-23T11:06:09.394Z,8.30
2022-11-23T11:08:48.796Z,8.30
2022-11-23T11:11:24.205Z,8.40
2022-11-23T11:13:51.342Z,8.50
2022-11-23T11:16:22.508Z,8.50
2022-11-23T11:18:49.360Z,8.50
2022-11-23T11:21:23.662Z,8.60
2022-11-23T11:23:59.837Z,8.60
2022-11-23T11:26:27.768Z,8.60
2022-11-23T11:28:55.980Z,8.60
2022-11-23T11:31:49.014Z,8.70
2022-11-23T11:34:19.036Z,8.70
2022-11-23T11:36:54.402Z,8.70
2022-11-23T11:39:24.853Z,8.70
2022-11-23T11:41:52.835Z,8.80
2022-11-23T11:44:21.309Z,8.80
2022-11-23T11:46:51.346Z,8.80
2022-11-23T11:49:31.446Z,8.80
2022-11-23T11:52:08.239Z,8.90
2022-11-23T11:54:37.207Z,8.80
2022-11-23T11:57:06.625Z,8.80
2022-11-23T11:59:33.844Z,8.70
2022-11-23T12:02:04.127Z,8.70
2022-11-23T12:04:43.423Z,8.60
2022-11-23T12:07:14.332Z,8.60
2022-11-23T12:09:44.829Z,8.50
2022-11-23T12:12:14.716Z,8.50
2022-11-23T12:14:41.979Z,8.50
2022-11-23T12:17:32.730Z,8.40
2022-11-23T12:20:20.412Z,8.40
2022-11-23T12:23:02.641Z,8.30
2022-11-23T12:25:34.637Z,8.30
2022-11-23T12:28:24.806Z,8.20
2022-11-23T12:30:51.749Z,8.20
2022-11-23T12:33:18.597Z,8.20
2022-11-23T12:35:48.536Z,8.20
2022-11-23T12:38:27.710Z,8.20
2022-11-23T12:41:13.089Z,8.20
2022-11-23T12:43:39.882Z,8.10
2022-11-23T12:46:13.984Z,8.10
2022-11-23T12:48:46.454Z,8.10
2022-11-23T12:51:13.248Z,8.10
2022-11-23T12:53:49.547Z,8.10
2022-11-23T12:56:25.086Z,8.10
2022-11-23T12:58:53.124Z,8.10
2022-11-23T13:01:30.853Z,8.10
2022-11-23T13:04:01.061Z,8.10
2022-11-23T13:06:36.536Z,8.10
2022-11-23T13:09:03.352Z,8.10
2022-11-23T13:11:39.308Z,8.10
2022-11-23T13:14:14.185Z,8.10
2022-11-23T13:16:54.570Z,8.10
2022-11-23T13:19:40.728Z,8.10
2022-11-23T13:22:11.385Z,8.10
2022-11-23T13:24:39.655Z,8.10
2022-11-23T13:27:15.326Z,8.20
2022-11-23T13:29:51.279Z,8.20
2022-11-23T13:32:34.148Z,8.20
2022-11-23T13:35:01.168Z,8.20
2022-11-23T13:37:27.962Z,8.20
2022-11-23T13:39:58.382Z,8.20
2022-11-23T13:42:26.835Z,8.20
2022-11-23T13:45:12.448Z,8.20
2022-11-23T13:47:42.448Z,8.20
2022-11-23T13:50:19.075Z,8.20
2022-11-23T13:52:49.875Z,8.20
2022-11-23T13:55:34.439Z,8.20
2022-11-23T13:58:20.175Z,8.20
2022-11-23T14:00:48.651Z,8.20
2022-11-23T14:03:34.205Z,8.20
2022-11-23T14:06:02.060Z,8.20
2022-11-23T14:08:29.054Z,8.20
2022-11-23T14:10:57.525Z,8.20
2022-11-23T14:13:27.303Z,8.10
2022-11-23T14:15:56.313Z,8.10
2022-11-23T14:18:41.890Z,8.10
2022-11-23T14:21:17.327Z,8.10
2022-11-23T14:24:03.077Z,8.10
2022-11-23T14:26:46.192Z,8.00
2022-11-23T14:29:18.877Z,8.00
2022-11-23T14:31:45.895Z,8.00
2022-11-23T14:34:25.078Z,7.90
2022-11-23T14:37:12.273Z,7.90
2022-11-23T14:39:57.507Z,7.90
2022-11-23T14:42:25.880Z,7.90
2022-11-23T14:44:52.824Z,7.90
2022-11-23T14:47:27.356Z,7.80
2022-11-23T14:49:54.236Z,7.80
2022-11-23T14:52:22.677Z,7.80
2022-11-23T14:54:53.837Z,7.80
2022-11-23T14:57:22.045Z,7.80
2022-11-23T14:59:56.497Z,7.70
2022-11-23T15:02:25.503Z,7.70
2022-11-23T15:04:58.661Z,7.70
2022-11-23T15:07:28.845Z,7.60
2022-11-23T15:09:58.765Z,7.60
2022-11-23T15:12:26.609Z,7.60
2022-11-23T15:14:54.338Z,7.50
2022-11-23T15:17:21.942Z,7.50
2022-11-23T15:19:54.674Z,7.50
2022-11-23T15:22:21.523Z,7.50
2022-11-23T15:24:48.490Z,7.40
2022-11-23T15:27:17.028Z,7.40
2022-11-23T15:29:51.505Z,7.40
2022-11-23T15:32:30.656Z,7.40
2022-11-23T15:35:00.245Z,7.30
2022-11-23T15:37:27.381Z,7.30
2022-11-23T15:39:55.055Z,7.30
2022-11-23T15:42:23.539Z,7.30
2022-11-23T15:44:52.299Z,7.30
2022-11-23T15:47:23.818Z,7.20
2022-11-23T15:49:50.810Z,7.20
2022-11-23T15:52:19.032Z,7.20
2022-11-23T15:54:46.117Z,7.20
2022-11-23T15:57:15.536Z,7.10
2022-11-23T15:59:47.293Z,7.10
2022-11-23T16:02:15.740Z,7.10
2022-11-23T16:04:45.644Z,7.10
2022-11-23T16:07:23.259Z,7.10
2022-11-23T16:10:09.041Z,7.00
2022-11-23T16:12:46.194Z,7.00
2022-11-23T16:15:32.636Z,7.00
2022-11-23T16:18:00.509Z,6.90
2022-11-23T16:20:27.850Z,6.90
2022-11-23T16:22:55.888Z,6.80
2022-11-23T16:25:28.957Z,6.80
2022-11-23T16:27:59.786Z,6.80
2022-11-23T16:30:34.697Z,6.80
2022-11-23T16:33:01.668Z,6.80
2022-11-23T16:35:28.531Z,6.70
2022-11-23T16:37:55.349Z,6.70
2022-11-23T16:40:22.203Z,6.70
2022-11-23T16:42:53.021Z,6.70
2022-11-23T16:45:19.948Z,6.70
2022-11-23T16:47:57.463Z,6.70
2022-11-23T16:50:24.446Z,6.60
2022-11-23T16:52:53.968Z,6.60
2022-11-23T16:55:21.008Z,6.60
2022-11-23T16:57:48.508Z,6.60
2022-11-23T17:00:17.211Z,6.60
2022-11-23T17:02:44.232Z,6.60
2022-11-23T17:05:18.909Z,6.60
2022-11-23T17:07:46.116Z,6.60
2022-11-23T17:10:13.975Z,6.60
2022-11-23T17:12:43.563Z,6.60
2022-11-23T17:15:11.505Z,6.60
2022-11-23T17:17:38.376Z,6.60
2022-11-23T17:20:05.421Z,6.50
2022-11-23T17:22:32.338Z,6.50
2022-11-23T17:24:59.240Z,6.50
2022-11-23T17:27:26.041Z,6.60
2022-11-23T17:29:57.683Z,6.60
2022-11-23T17:32:24.866Z,6.60
2022-11-23T17:34:51.738Z,6.60
2022-11-23T17:37:20.021Z,6.60
2022-11-23T17:39:47.583Z,6.60
2022-11-23T17:42:14.684Z,6.60
2022-11-23T17:44:41.628Z,6.60
2022-11-23T17:47:15.857Z,6.60
2022-11-23T17:49:42.681Z,6.70
2022-11-23T17:52:11.351Z,6.70
2022-11-23T17:54:38.160Z,6.70
2022-11-23T17:57:05.208Z,6.60
2022-11-23T17:59:32.563Z,6.70
2022-11-23T18:01:59.672Z,6.70
2022-11-23T18:04:26.510Z,6.70
2022-11-23T18:06:53.398Z,6.70
2022-11-23T18:09:20.338Z,6.70
2022-11-23T18:11:47.248Z,6.70
2022-11-23T18:14:14.379Z,6.70
2022-11-23T18:16:41.154Z,6.70
2022-11-23T18:19:08.283Z,6.70
2022-11-23T18:21:35.140Z,6.70
2022-11-23T18:24:04.713Z,6.70
2022-11-23T18:26:31.895Z,6.70
2022-11-23T18:28:58.790Z,6.70
2022-11-23T18:31:25.863Z,6.70
2022-11-23T18:33:52.798Z,6.70
2022-11-23T18:36:19.852Z,6.70
2022-11-23T18:38:46.763Z,6.60
2022-11-23T18:41:16.222Z,6.70
2022-11-23T18:43:46.151Z,6.70
2022-11-23T18:46:19.027Z,6.70
2022-11-23T18:48:47.176Z,6.70
2022-11-23T18:51:14.448Z,6.70
2022-11-23T18:53:41.433Z,6.70
2022-11-23T18:56:09.669Z,6.70
2022-11-23T18:58:37.364Z,6.80
2022-11-23T19:01:22.945Z,6.70
2022-11-23T19:03:51.281Z,6.80
2022-11-23T19:06:19.111Z,6.70
2022-11-23T19:08:47.088Z,6.80
2022-11-23T19:11:17.665Z,6.80
2022-11-23T19:13:46.163Z,6.80
2022-11-23T19:16:23.487Z,6.80
2022-11-23T19:18:58.212Z,6.80
2022-11-23T19:21:26.155Z,6.80
2022-11-23T19:23:53.967Z,6.80
2022-11-23T19:26:21.597Z,6.80
2022-11-23T19:28:48.532Z,6.90
2022-11-23T19:31:17.286Z,6.90
2022-11-23T19:33:44.749Z,6.90
2022-11-23T19:36:12.900Z,6.90
2022-11-23T19:38:39.979Z,6.90
2022-11-23T19:41:06.974Z,6.90
2022-11-23T19:43:34.024Z,6.90
2022-11-23T19:46:02.287Z,6.90
2022-11-23T19:48:29.774Z,6.90
2022-11-23T19:51:00.190Z,6.90
2022-11-23T19:53:31.022Z,6.90
2022-11-23T19:56:05.048Z,6.90
2022-11-23T19:58:32.872Z,6.90
2022-11-23T20:01:04.791Z,6.90
2022-11-23T20:03:34.232Z,6.90
2022-11-23T20:06:02.334Z,6.90
2022-11-23T20:08:29.564Z,6.90
2022-11-23T20:10:56.767Z,6.90
2022-11-23T20:13:23.938Z,6.90
2022-11-23T20:15:50.967Z,6.90
2022-11-23T20:18:18.348Z,6.90
2022-11-23T20:20:47.927Z,6.90
2022-11-23T20:23:14.923Z,6.90
2022-11-23T20:25:42.362Z,6.90
2022-11-23T20:28:13.886Z,6.90
2022-11-23T20:30:42.043Z,6.90
2022-11-23T20:33:09.548Z,6.90
2022-11-23T20:35:36.477Z,6.90
2022-11-23T20:38:03.478Z,6.90
2022-11-23T20:40:30.803Z,6.90
2022-11-23T20:42:58.054Z,6.90
2022-11-23T20:45:28.278Z,6.80
2022-11-23T20:47:55.209Z,6.80
2022-11-23T20:50:27.013Z,6.80
2022-11-23T20:52:54.567Z,6.80
2022-11-23T20:55:24.406Z,6.80
2022-11-23T20:57:51.864Z,6.80
2022-11-23T21:00:20.567Z,6.70
2022-11-23T21:02:51.577Z,6.70
2022-11-23T21:05:19.063Z,6.70
2022-11-23T21:07:46.894Z,6.60
2022-11-23T21:10:34.858Z,6.70
2022-11-23T21:13:20.403Z,6.60
2022-11-23T21:15:47.434Z,6.60
2022-11-23T21:18:14.573Z,6.60
2022-11-23T21:20:43.369Z,6.60
2022-11-23T21:23:10.342Z,6.60
2022-11-23T21:25:37.235Z,6.60
2022-11-23T21:28:04.198Z,6.60
2022-11-23T21:30:31.068Z,6.60
2022-11-23T21:32:57.885Z,6.60
2022-11-23T21:35:24.759Z,6.60
2022-11-23T21:37:51.632Z,6.50
2022-11-23T21:40:18.650Z,6.50
2022-11-23T21:42:45.981Z,6.50
2022-11-23T21:45:13.204Z,6.50
2022-11-23T21:47:40.117Z,6.50
2022-11-23T21:50:07.311Z,6.50
2022-11-23T21:52:34.259Z,6.50
2022-11-23T21:55:01.144Z,6.50
2022-11-23T21:57:28.011Z,6.50
2022-11-23T21:59:54.932Z,6.40
2022-11-23T22:02:21.886Z,6.40
2022-11-23T22:04:49.708Z,6.40
2022-11-23T22:07:16.706Z,6.40
2022-11-23T22:09:43.714Z,6.40
2022-11-23T22:12:10.589Z,6.40
2022-11-23T22:14:38.250Z,6.40
2022-11-23T22:17:05.106Z,6.40
2022-11-23T22:19:31.959Z,6.40
2022-11-23T22:21:58.772Z,6.40
2022-11-23T22:24:25.647Z,6.40
2022-11-23T22:26:52.551Z,6.40
2022-11-23T22:29:19.495Z,6.40
2022-11-23T22:31:46.412Z,6.40
2022-11-23T22:34:13.729Z,6.40
2022-11-23T22:36:40.671Z,6.50
2022-11-23T22:39:07.905Z,6.50
2022-11-23T22:41:38.377Z,6.50
2022-11-23T22:44:06.505Z,6.50
2022-11-23T22:46:33.541Z,6.50
2022-11-23T22:49:00.428Z,6.50
2022-11-23T22:51:28.670Z,6.50
2022-11-23T22:53:56.508Z,6.50
2022-11-23T22:56:23.602Z,6.50
2022-11-23T22:58:50.511Z,6.50
2022-11-23T23:01:23.719Z,6.50
2022-11-23T23:03:55.586Z,6.50
2022-11-23T23:06:24.078Z,6.50
2022-11-23T23:08:56.070Z,6.50
2022-11-23T23:11:23.846Z,6.50
2022-11-23T23:13:50.712Z,6.50
2022-11-23T23:16:17.596Z,6.50
2022-11-23T23:18:44.815Z,6.50
2022-11-23T23:21:14.349Z,6.50
2022-11-23T23:23:43.054Z,6.40
2022-11-23T23:26:10.799Z,6.50
2022-11-23T23:28:37.978Z,6.50
2022-11-23T23:31:09.078Z,6.50
2022-11-23T23:33:36.297Z,6.40
2022-11-23T23:36:04.584Z,6.50
2022-11-23T23:38:31.961Z,6.50
2022-11-23T23:40:58.986Z,6.50
2022-11-23T23:43:25.871Z,6.40
2022-11-23T23:45:56.547Z,6.40
2022-11-23T23:48:23.487Z,6.40
2022-11-23T23:50:50.630Z,6.40
2022-11-23T23:53:17.522Z,6.40
2022-11-23T23:55:54.389Z,6.40
2022-11-23T23:58:21.376Z,6.40
